Eastern, Kentucky
Current Conditions -  °F | °C
As of 6:55 AM on Monday 22 Dec 2014 (Local Time) from KPBX Reporting Station
Overcast Overcast  
Wind Chill: 39°   Ceiling: 4000
Heat Index: 39°   Visibility: 10mi
Dew Point: 33°   Wind: 3mph
Humidity: 78%   Direction: 130°SE
Pressure: 30.03"   Gusts: NA
Location:  37.52°N, 82.81°W
Report Text: KPBX 221155Z AUTO 13003KT 10SM OVC040 04/01 A3003 RMK AO2 T00410006 10046 20001
Loading
Personal Weather Stations






























Interactive Weather Map New forecast layout! Learn more

10-Day Weather Forecast

Advertisements
Track Severe Weather on mobile